sensor_id;sensor_type;location;lat;lon;timestamp;P1;durP1;ratioP1;P2;durP2;ratioP2
13085;SDS011;6609;49.882;8.664;2023-02-03T00:01:18;12.67;;;4.33;;
13085;SDS011;6609;49.882;8.664;2023-02-03T00:03:47;11.57;;;4.43;;
13085;SDS011;6609;49.882;8.664;2023-02-03T00:06:14;14.07;;;5.00;;
13085;SDS011;6609;49.882;8.664;2023-02-03T00:08:41;8.40;;;4.33;;
13085;SDS011;6609;49.882;8.664;2023-02-03T00:11:08;9.90;;;4.27;;
13085;SDS011;6609;49.882;8.664;2023-02-03T00:13:35;14.07;;;4.87;;
13085;SDS011;6609;49.882;8.664;2023-02-03T00:16:04;8.83;;;4.20;;
13085;SDS011;6609;49.882;8.664;2023-02-03T00:18:31;8.07;;;4.13;;
13085;SDS011;6609;49.882;8.664;2023-02-03T00:20:58;12.53;;;3.93;;
13085;SDS011;6609;49.882;8.664;2023-02-03T00:23:25;12.10;;;4.77;;
13085;SDS011;6609;49.882;8.664;2023-02-03T00:25:56;11.33;;;4.03;;
13085;SDS011;6609;49.882;8.664;2023-02-03T00:28:23;10.03;;;3.97;;
13085;SDS011;6609;49.882;8.664;2023-02-03T00:30:52;9.73;;;4.40;;
13085;SDS011;6609;49.882;8.664;2023-02-03T00:33:20;14.40;;;5.13;;
13085;SDS011;6609;49.882;8.664;2023-02-03T00:35:47;13.60;;;4.43;;
13085;SDS011;6609;49.882;8.664;2023-02-03T00:38:14;12.60;;;4.27;;
13085;SDS011;6609;49.882;8.664;2023-02-03T00:40:41;16.53;;;5.40;;
13085;SDS011;6609;49.882;8.664;2023-02-03T00:43:08;11.90;;;4.73;;
13085;SDS011;6609;49.882;8.664;2023-02-03T00:45:35;10.80;;;4.27;;
13085;SDS011;6609;49.882;8.664;2023-02-03T00:48:02;8.93;;;3.50;;
13085;SDS011;6609;49.882;8.664;2023-02-03T00:50:31;10.93;;;4.17;;
13085;SDS011;6609;49.882;8.664;2023-02-03T00:52:58;6.93;;;3.57;;
13085;SDS011;6609;49.882;8.664;2023-02-03T00:55:25;13.40;;;4.73;;
13085;SDS011;6609;49.882;8.664;2023-02-03T00:57:52;8.27;;;3.53;;
13085;SDS011;6609;49.882;8.664;2023-02-03T01:00:19;8.77;;;3.90;;
13085;SDS011;6609;49.882;8.664;2023-02-03T01:02:47;13.83;;;4.67;;
13085;SDS011;6609;49.882;8.664;2023-02-03T01:05:14;11.57;;;3.90;;
13085;SDS011;6609;49.882;8.664;2023-02-03T01:07:42;9.27;;;3.70;;
13085;SDS011;6609;49.882;8.664;2023-02-03T01:10:09;9.63;;;4.20;;
13085;SDS011;6609;49.882;8.664;2023-02-03T01:12:36;9.87;;;3.87;;
13085;SDS011;6609;49.882;8.664;2023-02-03T01:15:03;7.33;;;2.70;;
13085;SDS011;6609;49.882;8.664;2023-02-03T01:17:30;12.03;;;3.00;;
13085;SDS011;6609;49.882;8.664;2023-02-03T01:19:57;7.37;;;3.40;;
13085;SDS011;6609;49.882;8.664;2023-02-03T01:22:24;7.47;;;3.30;;
13085;SDS011;6609;49.882;8.664;2023-02-03T01:24:53;10.77;;;4.00;;
13085;SDS011;6609;49.882;8.664;2023-02-03T01:27:19;9.10;;;3.53;;
13085;SDS011;6609;49.882;8.664;2023-02-03T01:29:46;9.27;;;4.17;;
13085;SDS011;6609;49.882;8.664;2023-02-03T01:32:13;9.33;;;3.60;;
13085;SDS011;6609;49.882;8.664;2023-02-03T01:34:40;10.43;;;4.23;;
13085;SDS011;6609;49.882;8.664;2023-02-03T01:37:07;6.77;;;3.30;;
13085;SDS011;6609;49.882;8.664;2023-02-03T01:39:34;7.67;;;3.47;;
13085;SDS011;6609;49.882;8.664;2023-02-03T01:42:02;10.20;;;3.87;;
13085;SDS011;6609;49.882;8.664;2023-02-03T01:44:43;8.70;;;3.63;;
13085;SDS011;6609;49.882;8.664;2023-02-03T01:47:15;9.53;;;3.63;;
13085;SDS011;6609;49.882;8.664;2023-02-03T01:49:48;11.77;;;4.23;;
13085;SDS011;6609;49.882;8.664;2023-02-03T01:52:15;4.63;;;2.67;;
13085;SDS011;6609;49.882;8.664;2023-02-03T01:54:43;10.93;;;3.47;;
13085;SDS011;6609;49.882;8.664;2023-02-03T01:57:14;6.33;;;3.10;;
13085;SDS011;6609;49.882;8.664;2023-02-03T01:59:45;6.77;;;3.10;;
13085;SDS011;6609;49.882;8.664;2023-02-03T02:02:13;9.67;;;3.57;;
13085;SDS011;6609;49.882;8.664;2023-02-03T02:04:42;10.97;;;3.43;;
13085;SDS011;6609;49.882;8.664;2023-02-03T02:07:15;7.20;;;3.03;;
13085;SDS011;6609;49.882;8.664;2023-02-03T02:09:42;5.23;;;2.83;;
13085;SDS011;6609;49.882;8.664;2023-02-03T02:12:10;6.80;;;2.70;;
13085;SDS011;6609;49.882;8.664;2023-02-03T02:14:38;8.70;;;3.10;;
13085;SDS011;6609;49.882;8.664;2023-02-03T02:17:09;6.93;;;2.70;;
13085;SDS011;6609;49.882;8.664;2023-02-03T02:22:49;8.47;;;3.40;;
13085;SDS011;6609;49.882;8.664;2023-02-03T02:25:30;5.80;;;2.47;;
13085;SDS011;6609;49.882;8.664;2023-02-03T02:28:37;6.30;;;3.13;;
13085;SDS011;6609;49.882;8.664;2023-02-03T02:34:37;9.93;;;3.23;;
13085;SDS011;6609;49.882;8.664;2023-02-03T02:37:14;6.37;;;2.50;;
13085;SDS011;6609;49.882;8.664;2023-02-03T02:39:51;5.80;;;2.63;;
13085;SDS011;6609;49.882;8.664;2023-02-03T02:42:25;7.03;;;2.73;;
13085;SDS011;6609;49.882;8.664;2023-02-03T02:44:58;9.57;;;3.77;;
13085;SDS011;6609;49.882;8.664;2023-02-03T02:47:31;4.70;;;2.20;;
13085;SDS011;6609;49.882;8.664;2023-02-03T02:49:59;7.97;;;3.33;;
13085;SDS011;6609;49.882;8.664;2023-02-03T02:52:27;7.87;;;3.13;;
13085;SDS011;6609;49.882;8.664;2023-02-03T02:54:57;7.43;;;2.90;;
13085;SDS011;6609;49.882;8.664;2023-02-03T02:57:28;5.90;;;2.80;;
13085;SDS011;6609;49.882;8.664;2023-02-03T02:59:59;5.67;;;2.20;;
13085;SDS011;6609;49.882;8.664;2023-02-03T03:02:32;8.70;;;3.20;;
13085;SDS011;6609;49.882;8.664;2023-02-03T03:04:59;4.17;;;2.37;;
13085;SDS011;6609;49.882;8.664;2023-02-03T03:07:28;6.43;;;2.73;;
13085;SDS011;6609;49.882;8.664;2023-02-03T03:09:58;10.97;;;3.33;;
13085;SDS011;6609;49.882;8.664;2023-02-03T03:12:28;8.97;;;3.07;;
13085;SDS011;6609;49.882;8.664;2023-02-03T03:14:56;7.67;;;3.37;;
13085;SDS011;6609;49.882;8.664;2023-02-03T03:17:27;6.50;;;2.80;;
13085;SDS011;6609;49.882;8.664;2023-02-03T03:19:59;7.73;;;3.33;;
13085;SDS011;6609;49.882;8.664;2023-02-03T03:22:27;6.57;;;3.03;;
13085;SDS011;6609;49.882;8.664;2023-02-03T03:24:57;8.13;;;3.30;;
13085;SDS011;6609;49.882;8.664;2023-02-03T03:27:28;5.87;;;2.83;;
13085;SDS011;6609;49.882;8.664;2023-02-03T03:29:58;6.87;;;2.40;;
13085;SDS011;6609;49.882;8.664;2023-02-03T03:32:28;6.77;;;2.93;;
13085;SDS011;6609;49.882;8.664;2023-02-03T03:34:58;5.80;;;2.60;;
13085;SDS011;6609;49.882;8.664;2023-02-03T03:37:28;6.10;;;2.97;;
13085;SDS011;6609;49.882;8.664;2023-02-03T03:39:57;7.20;;;3.10;;
13085;SDS011;6609;49.882;8.664;2023-02-03T03:42:26;7.13;;;3.03;;
13085;SDS011;6609;49.882;8.664;2023-02-03T03:44:56;6.90;;;3.63;;
13085;SDS011;6609;49.882;8.664;2023-02-03T03:47:27;6.90;;;2.90;;
13085;SDS011;6609;49.882;8.664;2023-02-03T03:49:55;4.87;;;2.33;;
13085;SDS011;6609;49.882;8.664;2023-02-03T03:52:26;8.20;;;3.37;;
13085;SDS011;6609;49.882;8.664;2023-02-03T03:54:57;5.80;;;2.47;;
13085;SDS011;6609;49.882;8.664;2023-02-03T03:57:25;7.77;;;3.03;;
13085;SDS011;6609;49.882;8.664;2023-02-03T03:59:54;5.63;;;2.67;;
13085;SDS011;6609;49.882;8.664;2023-02-03T04:02:21;5.57;;;2.63;;
13085;SDS011;6609;49.882;8.664;2023-02-03T04:04:48;5.80;;;2.97;;
13085;SDS011;6609;49.882;8.664;2023-02-03T04:07:18;4.73;;;2.43;;
13085;SDS011;6609;49.882;8.664;2023-02-03T04:09:44;8.73;;;3.70;;
13085;SDS011;6609;49.882;8.664;2023-02-03T04:12:12;5.13;;;2.23;;
13085;SDS011;6609;49.882;8.664;2023-02-03T04:14:41;7.37;;;2.97;;
13085;SDS011;6609;49.882;8.664;2023-02-03T04:17:08;7.50;;;3.60;;
13085;SDS011;6609;49.882;8.664;2023-02-03T04:19:35;6.97;;;2.70;;
13085;SDS011;6609;49.882;8.664;2023-02-03T04:22:02;5.93;;;2.50;;
13085;SDS011;6609;49.882;8.664;2023-02-03T04:24:30;6.07;;;2.20;;
13085;SDS011;6609;49.882;8.664;2023-02-03T04:26:57;6.03;;;2.70;;
13085;SDS011;6609;49.882;8.664;2023-02-03T04:29:24;7.90;;;3.20;;
13085;SDS011;6609;49.882;8.664;2023-02-03T04:31:51;5.20;;;2.63;;
13085;SDS011;6609;49.882;8.664;2023-02-03T04:34:18;8.07;;;3.10;;
13085;SDS011;6609;49.882;8.664;2023-02-03T04:36:45;4.93;;;2.10;;
13085;SDS011;6609;49.882;8.664;2023-02-03T04:39:12;7.40;;;3.00;;
13085;SDS011;6609;49.882;8.664;2023-02-03T04:41:40;5.53;;;2.80;;
13085;SDS011;6609;49.882;8.664;2023-02-03T04:44:08;6.67;;;2.90;;
13085;SDS011;6609;49.882;8.664;2023-02-03T04:46:34;3.30;;;1.50;;
13085;SDS011;6609;49.882;8.664;2023-02-03T04:49:01;7.23;;;2.40;;
13085;SDS011;6609;49.882;8.664;2023-02-03T04:51:28;5.67;;;2.27;;
13085;SDS011;6609;49.882;8.664;2023-02-03T04:53:56;6.17;;;1.90;;
13085;SDS011;6609;49.882;8.664;2023-02-03T04:56:23;6.10;;;2.57;;
13085;SDS011;6609;49.882;8.664;2023-02-03T04:58:51;6.17;;;1.83;;
13085;SDS011;6609;49.882;8.664;2023-02-03T05:01:18;5.90;;;2.57;;
13085;SDS011;6609;49.882;8.664;2023-02-03T05:03:45;4.97;;;2.00;;
13085;SDS011;6609;49.882;8.664;2023-02-03T05:06:12;4.57;;;1.67;;
13085;SDS011;6609;49.882;8.664;2023-02-03T05:08:39;1.83;;;1.30;;
13085;SDS011;6609;49.882;8.664;2023-02-03T05:11:06;6.47;;;2.77;;
13085;SDS011;6609;49.882;8.664;2023-02-03T05:13:33;5.03;;;2.33;;
13085;SDS011;6609;49.882;8.664;2023-02-03T05:16:02;6.33;;;2.70;;
13085;SDS011;6609;49.882;8.664;2023-02-03T05:18:28;5.37;;;2.33;;
13085;SDS011;6609;49.882;8.664;2023-02-03T05:20:55;4.73;;;2.07;;
13085;SDS011;6609;49.882;8.664;2023-02-03T05:23:22;5.40;;;2.13;;
13085;SDS011;6609;49.882;8.664;2023-02-03T05:25:49;5.43;;;2.43;;
13085;SDS011;6609;49.882;8.664;2023-02-03T05:28:16;7.73;;;2.93;;
13085;SDS011;6609;49.882;8.664;2023-02-03T05:30:43;3.23;;;1.80;;
13085;SDS011;6609;49.882;8.664;2023-02-03T05:33:11;3.83;;;1.83;;
13085;SDS011;6609;49.882;8.664;2023-02-03T05:35:38;5.20;;;2.47;;
13085;SDS011;6609;49.882;8.664;2023-02-03T05:38:05;6.37;;;2.77;;
13085;SDS011;6609;49.882;8.664;2023-02-03T05:40:32;6.47;;;3.07;;
13085;SDS011;6609;49.882;8.664;2023-02-03T05:43:17;5.63;;;2.47;;
13085;SDS011;6609;49.882;8.664;2023-02-03T05:45:44;9.30;;;3.37;;
13085;SDS011;6609;49.882;8.664;2023-02-03T05:48:13;6.43;;;2.93;;
13085;SDS011;6609;49.882;8.664;2023-02-03T05:50:40;7.77;;;3.33;;
13085;SDS011;6609;49.882;8.664;2023-02-03T05:53:07;7.03;;;3.33;;
13085;SDS011;6609;49.882;8.664;2023-02-03T05:55:34;6.50;;;2.60;;
13085;SDS011;6609;49.882;8.664;2023-02-03T05:58:01;10.07;;;3.57;;
13085;SDS011;6609;49.882;8.664;2023-02-03T06:00:29;9.13;;;3.57;;
13085;SDS011;6609;49.882;8.664;2023-02-03T06:02:56;9.33;;;4.13;;
13085;SDS011;6609;49.882;8.664;2023-02-03T06:05:25;5.60;;;2.97;;
13085;SDS011;6609;49.882;8.664;2023-02-03T06:07:53;4.27;;;3.07;;
13085;SDS011;6609;49.882;8.664;2023-02-03T06:10:20;9.23;;;4.17;;
13085;SDS011;6609;49.882;8.664;2023-02-03T06:12:47;5.17;;;2.83;;
13085;SDS011;6609;49.882;8.664;2023-02-03T06:15:15;7.17;;;3.60;;
13085;SDS011;6609;49.882;8.664;2023-02-03T06:17:43;5.77;;;3.20;;
13085;SDS011;6609;49.882;8.664;2023-02-03T06:20:11;7.77;;;3.40;;
13085;SDS011;6609;49.882;8.664;2023-02-03T06:22:39;6.43;;;2.93;;
13085;SDS011;6609;49.882;8.664;2023-02-03T06:25:06;8.73;;;3.80;;
13085;SDS011;6609;49.882;8.664;2023-02-03T06:27:33;5.90;;;3.17;;
13085;SDS011;6609;49.882;8.664;2023-02-03T06:30:01;7.77;;;3.60;;
13085;SDS011;6609;49.882;8.664;2023-02-03T06:32:28;9.03;;;3.80;;
13085;SDS011;6609;49.882;8.664;2023-02-03T06:34:55;7.13;;;3.27;;
13085;SDS011;6609;49.882;8.664;2023-02-03T06:37:22;5.97;;;3.27;;
13085;SDS011;6609;49.882;8.664;2023-02-03T06:39:50;9.03;;;3.40;;
13085;SDS011;6609;49.882;8.664;2023-02-03T06:42:17;8.73;;;3.67;;
13085;SDS011;6609;49.882;8.664;2023-02-03T06:44:44;6.77;;;3.60;;
13085;SDS011;6609;49.882;8.664;2023-02-03T06:47:11;9.87;;;4.20;;
13085;SDS011;6609;49.882;8.664;2023-02-03T06:49:38;8.40;;;3.67;;
13085;SDS011;6609;49.882;8.664;2023-02-03T06:52:05;7.73;;;3.93;;
13085;SDS011;6609;49.882;8.664;2023-02-03T06:54:32;8.03;;;4.00;;
13085;SDS011;6609;49.882;8.664;2023-02-03T06:57:00;11.13;;;4.73;;
13085;SDS011;6609;49.882;8.664;2023-02-03T06:59:28;10.50;;;4.20;;
13085;SDS011;6609;49.882;8.664;2023-02-03T07:01:55;9.97;;;4.33;;
13085;SDS011;6609;49.882;8.664;2023-02-03T07:04:22;12.57;;;5.13;;
13085;SDS011;6609;49.882;8.664;2023-02-03T07:06:52;6.87;;;3.77;;
13085;SDS011;6609;49.882;8.664;2023-02-03T07:09:19;7.27;;;3.90;;
13085;SDS011;6609;49.882;8.664;2023-02-03T07:11:46;6.70;;;3.57;;
13085;SDS011;6609;49.882;8.664;2023-02-03T07:14:14;6.80;;;3.57;;
13085;SDS011;6609;49.882;8.664;2023-02-03T07:16:41;5.53;;;3.10;;
13085;SDS011;6609;49.882;8.664;2023-02-03T07:19:08;8.00;;;3.77;;
13085;SDS011;6609;49.882;8.664;2023-02-03T07:21:35;6.53;;;3.60;;
13085;SDS011;6609;49.882;8.664;2023-02-03T07:24:02;11.57;;;3.43;;
13085;SDS011;6609;49.882;8.664;2023-02-03T07:26:29;7.73;;;3.80;;
13085;SDS011;6609;49.882;8.664;2023-02-03T07:28:56;6.23;;;3.43;;
13085;SDS011;6609;49.882;8.664;2023-02-03T07:31:26;6.83;;;3.53;;
13085;SDS011;6609;49.882;8.664;2023-02-03T07:33:52;6.73;;;2.83;;
13085;SDS011;6609;49.882;8.664;2023-02-03T07:36:20;10.27;;;3.07;;
13085;SDS011;6609;49.882;8.664;2023-02-03T07:38:48;8.70;;;3.67;;
13085;SDS011;6609;49.882;8.664;2023-02-03T07:41:15;8.33;;;3.40;;
13085;SDS011;6609;49.882;8.664;2023-02-03T07:43:42;6.93;;;2.97;;
13085;SDS011;6609;49.882;8.664;2023-02-03T07:46:08;5.43;;;2.80;;
13085;SDS011;6609;49.882;8.664;2023-02-03T07:48:37;7.27;;;3.30;;
13085;SDS011;6609;49.882;8.664;2023-02-03T07:51:04;5.73;;;2.90;;
13085;SDS011;6609;49.882;8.664;2023-02-03T07:53:31;6.67;;;3.10;;
13085;SDS011;6609;49.882;8.664;2023-02-03T07:55:59;5.90;;;2.53;;
13085;SDS011;6609;49.882;8.664;2023-02-03T07:58:26;7.00;;;3.27;;
13085;SDS011;6609;49.882;8.664;2023-02-03T08:00:54;10.40;;;3.37;;
13085;SDS011;6609;49.882;8.664;2023-02-03T08:03:21;5.87;;;2.70;;
13085;SDS011;6609;49.882;8.664;2023-02-03T08:05:49;4.60;;;2.33;;
13085;SDS011;6609;49.882;8.664;2023-02-03T08:08:16;4.57;;;2.63;;
13085;SDS011;6609;49.882;8.664;2023-02-03T08:10:43;9.67;;;3.37;;
13085;SDS011;6609;49.882;8.664;2023-02-03T08:13:10;6.23;;;2.83;;
13085;SDS011;6609;49.882;8.664;2023-02-03T08:15:37;4.63;;;2.50;;
13085;SDS011;6609;49.882;8.664;2023-02-03T08:18:04;7.43;;;2.40;;
13085;SDS011;6609;49.882;8.664;2023-02-03T08:20:32;6.00;;;2.87;;
13085;SDS011;6609;49.882;8.664;2023-02-03T08:23:01;5.03;;;2.57;;
13085;SDS011;6609;49.882;8.664;2023-02-03T08:25:27;4.30;;;2.03;;
13085;SDS011;6609;49.882;8.664;2023-02-03T08:27:54;3.33;;;1.93;;
13085;SDS011;6609;49.882;8.664;2023-02-03T08:30:21;8.07;;;2.97;;
13085;SDS011;6609;49.882;8.664;2023-02-03T08:32:48;5.80;;;2.57;;
13085;SDS011;6609;49.882;8.664;2023-02-03T08:35:16;6.20;;;2.70;;
13085;SDS011;6609;49.882;8.664;2023-02-03T08:37:43;5.50;;;2.80;;
13085;SDS011;6609;49.882;8.664;2023-02-03T08:40:11;5.30;;;2.90;;
13085;SDS011;6609;49.882;8.664;2023-02-03T08:42:38;7.67;;;2.80;;
13085;SDS011;6609;49.882;8.664;2023-02-03T08:45:06;5.20;;;2.40;;
13085;SDS011;6609;49.882;8.664;2023-02-03T08:47:33;5.53;;;2.70;;
13085;SDS011;6609;49.882;8.664;2023-02-03T08:50:01;4.97;;;2.70;;
13085;SDS011;6609;49.882;8.664;2023-02-03T08:52:28;7.53;;;2.67;;
13085;SDS011;6609;49.882;8.664;2023-02-03T08:54:55;4.43;;;2.40;;
13085;SDS011;6609;49.882;8.664;2023-02-03T08:57:23;8.50;;;2.40;;
13085;SDS011;6609;49.882;8.664;2023-02-03T08:59:50;4.53;;;2.57;;
13085;SDS011;6609;49.882;8.664;2023-02-03T09:02:17;6.17;;;2.70;;
13085;SDS011;6609;49.882;8.664;2023-02-03T09:04:45;9.03;;;3.17;;
13085;SDS011;6609;49.882;8.664;2023-02-03T09:07:13;7.30;;;2.20;;
13085;SDS011;6609;49.882;8.664;2023-02-03T09:09:40;5.33;;;2.83;;
13085;SDS011;6609;49.882;8.664;2023-02-03T09:12:07;4.13;;;2.07;;
13085;SDS011;6609;49.882;8.664;2023-02-03T09:14:37;7.27;;;2.47;;
13085;SDS011;6609;49.882;8.664;2023-02-03T09:17:04;5.03;;;2.07;;
13085;SDS011;6609;49.882;8.664;2023-02-03T09:19:32;6.63;;;2.17;;
13085;SDS011;6609;49.882;8.664;2023-02-03T09:21:59;6.43;;;2.17;;
13085;SDS011;6609;49.882;8.664;2023-02-03T09:24:26;4.50;;;1.90;;
13085;SDS011;6609;49.882;8.664;2023-02-03T09:26:53;5.37;;;2.50;;
13085;SDS011;6609;49.882;8.664;2023-02-03T09:29:20;4.33;;;2.23;;
13085;SDS011;6609;49.882;8.664;2023-02-03T09:31:49;5.50;;;2.20;;
13085;SDS011;6609;49.882;8.664;2023-02-03T09:34:17;5.10;;;2.33;;
13085;SDS011;6609;49.882;8.664;2023-02-03T09:36:44;5.77;;;2.23;;
13085;SDS011;6609;49.882;8.664;2023-02-03T09:39:12;4.17;;;1.83;;
13085;SDS011;6609;49.882;8.664;2023-02-03T09:41:43;4.87;;;2.13;;
13085;SDS011;6609;49.882;8.664;2023-02-03T09:44:28;6.90;;;2.53;;
13085;SDS011;6609;49.882;8.664;2023-02-03T09:46:59;5.63;;;2.17;;
13085;SDS011;6609;49.882;8.664;2023-02-03T09:49:31;6.20;;;1.83;;
13085;SDS011;6609;49.882;8.664;2023-02-03T09:52:04;5.37;;;2.47;;
13085;SDS011;6609;49.882;8.664;2023-02-03T09:54:40;6.27;;;2.43;;
13085;SDS011;6609;49.882;8.664;2023-02-03T09:57:11;5.43;;;1.80;;
13085;SDS011;6609;49.882;8.664;2023-02-03T09:59:41;5.63;;;1.90;;
13085;SDS011;6609;49.882;8.664;2023-02-03T10:02:15;3.20;;;1.70;;
13085;SDS011;6609;49.882;8.664;2023-02-03T10:04:51;5.37;;;1.70;;
13085;SDS011;6609;49.882;8.664;2023-02-03T10:07:25;6.23;;;1.80;;
13085;SDS011;6609;49.882;8.664;2023-02-03T10:10:04;8.63;;;2.70;;
13085;SDS011;6609;49.882;8.664;2023-02-03T10:12:46;5.03;;;2.20;;
13085;SDS011;6609;49.882;8.664;2023-02-03T10:15:41;5.60;;;2.27;;
13085;SDS011;6609;49.882;8.664;2023-02-03T10:18:24;6.60;;;2.40;;
13085;SDS011;6609;49.882;8.664;2023-02-03T10:20:57;7.03;;;2.37;;
13085;SDS011;6609;49.882;8.664;2023-02-03T10:23:27;3.27;;;1.67;;
13085;SDS011;6609;49.882;8.664;2023-02-03T10:25:58;6.57;;;2.50;;
13085;SDS011;6609;49.882;8.664;2023-02-03T10:28:28;5.37;;;1.63;;
13085;SDS011;6609;49.882;8.664;2023-02-03T10:30:57;5.33;;;2.33;;
13085;SDS011;6609;49.882;8.664;2023-02-03T10:33:26;5.27;;;2.00;;
13085;SDS011;6609;49.882;8.664;2023-02-03T10:35:58;3.37;;;1.57;;
13085;SDS011;6609;49.882;8.664;2023-02-03T10:38:34;5.07;;;2.03;;
13085;SDS011;6609;49.882;8.664;2023-02-03T10:41:11;4.27;;;1.87;;
13085;SDS011;6609;49.882;8.664;2023-02-03T10:43:38;5.33;;;2.27;;
13085;SDS011;6609;49.882;8.664;2023-02-03T10:46:16;6.00;;;1.97;;
13085;SDS011;6609;49.882;8.664;2023-02-03T10:48:44;5.87;;;2.20;;
13085;SDS011;6609;49.882;8.664;2023-02-03T10:51:14;3.83;;;1.87;;
13085;SDS011;6609;49.882;8.664;2023-02-03T10:53:44;3.80;;;1.93;;
13085;SDS011;6609;49.882;8.664;2023-02-03T10:56:12;11.90;;;4.13;;
13085;SDS011;6609;49.882;8.664;2023-02-03T10:58:45;3.43;;;2.07;;
13085;SDS011;6609;49.882;8.664;2023-02-03T11:01:16;8.17;;;2.93;;
13085;SDS011;6609;49.882;8.664;2023-02-03T11:03:54;6.33;;;2.10;;
13085;SDS011;6609;49.882;8.664;2023-02-03T11:06:23;3.80;;;1.60;;
13085;SDS011;6609;49.882;8.664;2023-02-03T11:08:50;3.37;;;1.80;;
13085;SDS011;6609;49.882;8.664;2023-02-03T11:11:20;5.43;;;2.23;;
13085;SDS011;6609;49.882;8.664;2023-02-03T11:13:51;5.70;;;2.27;;
13085;SDS011;6609;49.882;8.664;2023-02-03T11:16:19;3.90;;;1.87;;
13085;SDS011;6609;49.882;8.664;2023-02-03T11:18:54;4.40;;;1.67;;
13085;SDS011;6609;49.882;8.664;2023-02-03T11:21:24;2.77;;;1.37;;
13085;SDS011;6609;49.882;8.664;2023-02-03T11:23:55;5.10;;;2.03;;
13085;SDS011;6609;49.882;8.664;2023-02-03T11:26:27;6.13;;;2.27;;
13085;SDS011;6609;49.882;8.664;2023-02-03T11:28:57;6.47;;;2.40;;
13085;SDS011;6609;49.882;8.664;2023-02-03T11:31:26;3.80;;;1.40;;
13085;SDS011;6609;49.882;8.664;2023-02-03T11:33:56;7.30;;;1.47;;
13085;SDS011;6609;49.882;8.664;2023-02-03T11:36:26;5.77;;;2.10;;
13085;SDS011;6609;49.882;8.664;2023-02-03T11:39:07;5.77;;;1.83;;
13085;SDS011;6609;49.882;8.664;2023-02-03T11:41:35;5.03;;;2.03;;
13085;SDS011;6609;49.882;8.664;2023-02-03T11:44:08;7.70;;;2.27;;
13085;SDS011;6609;49.882;8.664;2023-02-03T11:46:37;9.00;;;2.07;;
13085;SDS011;6609;49.882;8.664;2023-02-03T11:49:07;3.93;;;1.63;;
13085;SDS011;6609;49.882;8.664;2023-02-03T11:51:42;4.87;;;2.20;;
13085;SDS011;6609;49.882;8.664;2023-02-03T11:54:21;4.40;;;1.70;;
13085;SDS011;6609;49.882;8.664;2023-02-03T11:57:05;5.20;;;2.93;;
13085;SDS011;6609;49.882;8.664;2023-02-03T11:59:40;8.10;;;1.50;;
13085;SDS011;6609;49.882;8.664;2023-02-03T12:02:22;4.43;;;1.77;;
13085;SDS011;6609;49.882;8.664;2023-02-03T12:05:25;4.50;;;1.67;;
13085;SDS011;6609;49.882;8.664;2023-02-03T12:08:10;6.87;;;2.33;;
13085;SDS011;6609;49.882;8.664;2023-02-03T12:10:46;3.30;;;1.40;;
13085;SDS011;6609;49.882;8.664;2023-02-03T12:13:35;4.40;;;1.83;;
13085;SDS011;6609;49.882;8.664;2023-02-03T12:16:20;2.67;;;1.30;;
13085;SDS011;6609;49.882;8.664;2023-02-03T12:18:55;4.47;;;2.00;;
13085;SDS011;6609;49.882;8.664;2023-02-03T12:21:39;5.77;;;2.17;;
13085;SDS011;6609;49.882;8.664;2023-02-03T12:24:11;4.40;;;1.63;;
13085;SDS011;6609;49.882;8.664;2023-02-03T12:26:49;3.47;;;1.40;;
13085;SDS011;6609;49.882;8.664;2023-02-03T12:29:21;6.00;;;2.13;;
13085;SDS011;6609;49.882;8.664;2023-02-03T12:31:54;5.40;;;1.50;;
13085;SDS011;6609;49.882;8.664;2023-02-03T12:34:32;4.87;;;1.70;;
13085;SDS011;6609;49.882;8.664;2023-02-03T12:37:03;4.63;;;1.90;;
13085;SDS011;6609;49.882;8.664;2023-02-03T12:39:34;4.03;;;1.70;;
13085;SDS011;6609;49.882;8.664;2023-02-03T12:44:51;4.43;;;1.63;;
13085;SDS011;6609;49.882;8.664;2023-02-03T12:47:24;2.87;;;1.20;;
13085;SDS011;6609;49.882;8.664;2023-02-03T12:49:55;4.47;;;1.37;;
13085;SDS011;6609;49.882;8.664;2023-02-03T12:52:25;4.70;;;1.73;;
13085;SDS011;6609;49.882;8.664;2023-02-03T12:54:59;6.67;;;2.40;;
13085;SDS011;6609;49.882;8.664;2023-02-03T12:57:40;7.03;;;2.33;;
13085;SDS011;6609;49.882;8.664;2023-02-03T13:00:13;7.50;;;2.20;;
13085;SDS011;6609;49.882;8.664;2023-02-03T13:02:46;9.27;;;1.40;;
13085;SDS011;6609;49.882;8.664;2023-02-03T13:05:22;4.30;;;1.30;;
13085;SDS011;6609;49.882;8.664;2023-02-03T13:07:57;5.37;;;1.77;;
13085;SDS011;6609;49.882;8.664;2023-02-03T13:10:30;4.93;;;1.53;;
13085;SDS011;6609;49.882;8.664;2023-02-03T13:12:58;9.03;;;2.47;;
13085;SDS011;6609;49.882;8.664;2023-02-03T13:15:28;5.73;;;1.57;;
13085;SDS011;6609;49.882;8.664;2023-02-03T13:18:00;7.73;;;1.60;;
13085;SDS011;6609;49.882;8.664;2023-02-03T13:20:34;6.07;;;2.37;;
13085;SDS011;6609;49.882;8.664;2023-02-03T13:23:04;7.57;;;2.47;;
13085;SDS011;6609;49.882;8.664;2023-02-03T13:25:37;4.80;;;1.87;;
13085;SDS011;6609;49.882;8.664;2023-02-03T13:28:09;9.50;;;2.90;;
13085;SDS011;6609;49.882;8.664;2023-02-03T13:30:50;8.37;;;2.20;;
13085;SDS011;6609;49.882;8.664;2023-02-03T13:36:08;4.13;;;1.60;;
13085;SDS011;6609;49.882;8.664;2023-02-03T13:41:46;5.90;;;1.67;;
13085;SDS011;6609;49.882;8.664;2023-02-03T13:44:18;4.83;;;1.67;;
13085;SDS011;6609;49.882;8.664;2023-02-03T13:46:48;5.60;;;1.67;;
13085;SDS011;6609;49.882;8.664;2023-02-03T13:49:17;6.07;;;1.87;;
13085;SDS011;6609;49.882;8.664;2023-02-03T13:51:49;6.03;;;2.17;;
13085;SDS011;6609;49.882;8.664;2023-02-03T13:54:20;4.80;;;1.73;;
13085;SDS011;6609;49.882;8.664;2023-02-03T13:56:53;3.47;;;1.33;;
13085;SDS011;6609;49.882;8.664;2023-02-03T13:59:26;4.27;;;1.43;;
13085;SDS011;6609;49.882;8.664;2023-02-03T14:04:56;4.40;;;1.53;;
13085;SDS011;6609;49.882;8.664;2023-02-03T14:07:26;5.23;;;1.33;;
13085;SDS011;6609;49.882;8.664;2023-02-03T14:10:18;5.00;;;1.60;;
13085;SDS011;6609;49.882;8.664;2023-02-03T14:12:53;4.03;;;1.47;;
13085;SDS011;6609;49.882;8.664;2023-02-03T14:15:30;5.77;;;2.03;;
13085;SDS011;6609;49.882;8.664;2023-02-03T14:23:48;5.47;;;1.70;;
13085;SDS011;6609;49.882;8.664;2023-02-03T14:26:21;6.43;;;2.30;;
13085;SDS011;6609;49.882;8.664;2023-02-03T14:28:54;4.10;;;1.43;;
13085;SDS011;6609;49.882;8.664;2023-02-03T14:31:21;4.10;;;1.30;;
13085;SDS011;6609;49.882;8.664;2023-02-03T14:33:52;4.23;;;1.43;;
13085;SDS011;6609;49.882;8.664;2023-02-03T14:36:30;5.07;;;1.40;;
13085;SDS011;6609;49.882;8.664;2023-02-03T14:38:59;5.23;;;1.87;;
13085;SDS011;6609;49.882;8.664;2023-02-03T14:41:31;11.27;;;3.73;;
13085;SDS011;6609;49.882;8.664;2023-02-03T14:44:11;7.90;;;3.20;;
13085;SDS011;6609;49.882;8.664;2023-02-03T14:46:46;5.20;;;2.17;;
13085;SDS011;6609;49.882;8.664;2023-02-03T14:49:36;4.67;;;1.40;;
13085;SDS011;6609;49.882;8.664;2023-02-03T14:52:27;3.73;;;1.50;;
13085;SDS011;6609;49.882;8.664;2023-02-03T14:55:09;4.20;;;1.67;;
13085;SDS011;6609;49.882;8.664;2023-02-03T14:57:51;4.03;;;1.30;;
13085;SDS011;6609;49.882;8.664;2023-02-03T15:00:27;5.17;;;1.93;;
13085;SDS011;6609;49.882;8.664;2023-02-03T15:03:16;3.87;;;1.50;;
13085;SDS011;6609;49.882;8.664;2023-02-03T15:05:47;4.40;;;1.80;;
13085;SDS011;6609;49.882;8.664;2023-02-03T15:11:14;5.83;;;1.73;;
13085;SDS011;6609;49.882;8.664;2023-02-03T15:13:56;4.27;;;1.60;;
13085;SDS011;6609;49.882;8.664;2023-02-03T15:16:38;7.43;;;2.00;;
13085;SDS011;6609;49.882;8.664;2023-02-03T15:19:13;6.90;;;2.10;;
13085;SDS011;6609;49.882;8.664;2023-02-03T15:21:42;12.70;;;4.17;;
13085;SDS011;6609;49.882;8.664;2023-02-03T15:24:11;5.23;;;2.10;;
13085;SDS011;6609;49.882;8.664;2023-02-03T15:26:43;6.53;;;2.20;;
13085;SDS011;6609;49.882;8.664;2023-02-03T15:29:18;5.07;;;2.27;;
13085;SDS011;6609;49.882;8.664;2023-02-03T15:31:47;4.40;;;1.83;;
13085;SDS011;6609;49.882;8.664;2023-02-03T15:34:17;8.10;;;2.70;;
13085;SDS011;6609;49.882;8.664;2023-02-03T15:36:51;7.50;;;2.43;;
13085;SDS011;6609;49.882;8.664;2023-02-03T15:39:20;4.27;;;1.60;;
13085;SDS011;6609;49.882;8.664;2023-02-03T15:41:54;6.10;;;2.20;;
13085;SDS011;6609;49.882;8.664;2023-02-03T15:44:26;5.27;;;1.97;;
13085;SDS011;6609;49.882;8.664;2023-02-03T15:46:54;6.17;;;1.73;;